sensor_id;sensor_type;location;lat;lon;timestamp;pressure;altitude;pressure_sealevel;temperature
27986;BMP280;15453;53.692;10.168;2023-07-20T00:01:27;100870.91;;;19.53
27986;BMP280;15453;53.692;10.168;2023-07-20T00:03:53;100873.38;;;19.54
27986;BMP280;15453;53.692;10.168;2023-07-20T00:06:21;100867.81;;;19.54
27986;BMP280;15453;53.692;10.168;2023-07-20T00:08:47;100871.13;;;19.56
27986;BMP280;15453;53.692;10.168;2023-07-20T00:11:13;100874.41;;;19.58
27986;BMP280;15453;53.692;10.168;2023-07-20T00:13:39;100874.41;;;19.58
27986;BMP280;15453;53.692;10.168;2023-07-20T00:16:04;100871.13;;;19.56
27986;BMP280;15453;53.692;10.168;2023-07-20T00:18:30;100866.91;;;19.59
27986;BMP280;15453;53.692;10.168;2023-07-20T00:20:55;100866.91;;;19.59
27986;BMP280;15453;53.692;10.168;2023-07-20T00:23:20;100851.69;;;19.56
27986;BMP280;15453;53.692;10.168;2023-07-20T00:25:47;100861.03;;;19.60
27986;BMP280;15453;53.692;10.168;2023-07-20T00:28:13;100861.03;;;19.60
27986;BMP280;15453;53.692;10.168;2023-07-20T00:30:38;100853.63;;;19.56
27986;BMP280;15453;53.692;10.168;2023-07-20T00:33:03;100852.50;;;19.57
27986;BMP280;15453;53.692;10.168;2023-07-20T00:35:28;100849.72;;;19.57
27986;BMP280;15453;53.692;10.168;2023-07-20T00:37:53;100857.75;;;19.58
27986;BMP280;15453;53.692;10.168;2023-07-20T00:40:19;100856.91;;;19.58
27986;BMP280;15453;53.692;10.168;2023-07-20T00:42:44;100854.13;;;19.58
27986;BMP280;15453;53.692;10.168;2023-07-20T00:45:10;100848.81;;;19.61
27986;BMP280;15453;53.692;10.168;2023-07-20T00:47:36;100848.81;;;19.61
27986;BMP280;15453;53.692;10.168;2023-07-20T00:50:02;100849.41;;;19.58
27986;BMP280;15453;53.692;10.168;2023-07-20T00:52:28;100859.38;;;19.59
27986;BMP280;15453;53.692;10.168;2023-07-20T00:54:53;100855.81;;;19.59
27986;BMP280;15453;53.692;10.168;2023-07-20T00:57:22;100858.59;;;19.59
27986;BMP280;15453;53.692;10.168;2023-07-20T00:59:49;100854.66;;;19.60
27986;BMP280;15453;53.692;10.168;2023-07-20T01:02:14;100855.47;;;19.60
27986;BMP280;15453;53.692;10.168;2023-07-20T01:04:39;100855.47;;;19.60
27986;BMP280;15453;53.692;10.168;2023-07-20T01:07:51;100860.84;;;19.57
27986;BMP280;15453;53.692;10.168;2023-07-20T01:10:10;100853.94;;;19.54
27986;BMP280;15453;53.692;10.168;2023-07-20T01:12:41;100856.22;;;19.52
27986;BMP280;15453;53.692;10.168;2023-07-20T01:15:07;100854.53;;;19.51
27986;BMP280;15453;53.692;10.168;2023-07-20T01:17:34;100852.59;;;19.52
27986;BMP280;15453;53.692;10.168;2023-07-20T01:19:59;100852.91;;;19.50
27986;BMP280;15453;53.692;10.168;2023-07-20T01:25:34;100851.06;;;19.46
27986;BMP280;15453;53.692;10.168;2023-07-20T01:28:24;100857.72;;;19.45
27986;BMP280;15453;53.692;10.168;2023-07-20T01:31:09;100858.84;;;19.44
27986;BMP280;15453;53.692;10.168;2023-07-20T01:33:35;100862.75;;;19.43
27986;BMP280;15453;53.692;10.168;2023-07-20T01:36:01;100853.28;;;19.44
27986;BMP280;15453;53.692;10.168;2023-07-20T01:38:28;100849.69;;;19.43
27986;BMP280;15453;53.692;10.168;2023-07-20T01:40:53;100861.94;;;19.42
27986;BMP280;15453;53.692;10.168;2023-07-20T01:43:19;100853.91;;;19.41
27986;BMP280;15453;53.692;10.168;2023-07-20T01:45:44;100846.69;;;19.40
27986;BMP280;15453;53.692;10.168;2023-07-20T01:48:10;100849.47;;;19.40
27986;BMP280;15453;53.692;10.168;2023-07-20T01:50:35;100845.06;;;19.39
27986;BMP280;15453;53.692;10.168;2023-07-20T01:53:01;100847.84;;;19.39
27986;BMP280;15453;53.692;10.168;2023-07-20T01:55:26;100843.41;;;19.38
27986;BMP280;15453;53.692;10.168;2023-07-20T01:57:52;100848.97;;;19.38
27986;BMP280;15453;53.692;10.168;2023-07-20T02:00:18;100848.13;;;19.37
27986;BMP280;15453;53.692;10.168;2023-07-20T02:02:46;100846.19;;;19.38
27986;BMP280;15453;53.692;10.168;2023-07-20T02:05:11;100850.91;;;19.37
27986;BMP280;15453;53.692;10.168;2023-07-20T02:07:36;100849.47;;;19.40
27986;BMP280;15453;53.692;10.168;2023-07-20T02:10:02;100849.47;;;19.40
27986;BMP280;15453;53.692;10.168;2023-07-20T02:12:27;100842.78;;;19.41
27986;BMP280;15453;53.692;10.168;2023-07-20T02:14:52;100842.78;;;19.41
27986;BMP280;15453;53.692;10.168;2023-07-20T02:17:18;100836.72;;;19.39
27986;BMP280;15453;53.692;10.168;2023-07-20T02:19:43;100847.84;;;19.39
27986;BMP280;15453;53.692;10.168;2023-07-20T02:22:08;100842.28;;;19.39
27986;BMP280;15453;53.692;10.168;2023-07-20T02:24:34;100841.44;;;19.38
27986;BMP280;15453;53.692;10.168;2023-07-20T02:26:59;100854.72;;;19.41
27986;BMP280;15453;53.692;10.168;2023-07-20T02:29:24;100854.72;;;19.41
27986;BMP280;15453;53.692;10.168;2023-07-20T02:31:50;100851.41;;;19.39
27986;BMP280;15453;53.692;10.168;2023-07-20T02:34:15;100855.34;;;19.38
27986;BMP280;15453;53.692;10.168;2023-07-20T02:36:40;100851.75;;;19.38
27986;BMP280;15453;53.692;10.168;2023-07-20T02:39:07;100854.00;;;19.36
27986;BMP280;15453;53.692;10.168;2023-07-20T02:41:33;100853.47;;;19.34
27986;BMP280;15453;53.692;10.168;2023-07-20T02:43:59;100852.66;;;19.33
27986;BMP280;15453;53.692;10.168;2023-07-20T02:46:24;100860.97;;;19.33
27986;BMP280;15453;53.692;10.168;2023-07-20T02:48:49;100854.38;;;19.29
27986;BMP280;15453;53.692;10.168;2023-07-20T02:51:14;100868.56;;;19.28
27986;BMP280;15453;53.692;10.168;2023-07-20T02:53:39;100863.31;;;19.26
27986;BMP280;15453;53.692;10.168;2023-07-20T02:56:05;100860.03;;;19.24
27986;BMP280;15453;53.692;10.168;2023-07-20T02:58:30;100865.84;;;19.23
27986;BMP280;15453;53.692;10.168;2023-07-20T03:00:55;100863.66;;;19.20
27986;BMP280;15453;53.692;10.168;2023-07-20T03:03:20;100868.41;;;19.19
27986;BMP280;15453;53.692;10.168;2023-07-20T03:05:46;100863.16;;;19.18
27986;BMP280;15453;53.692;10.168;2023-07-20T03:08:11;100858.75;;;19.17
27986;BMP280;15453;53.692;10.168;2023-07-20T03:10:40;100865.41;;;19.16
27986;BMP280;15453;53.692;10.168;2023-07-20T03:13:06;100864.91;;;19.14
27986;BMP280;15453;53.692;10.168;2023-07-20T03:15:31;100856.88;;;19.12
27986;BMP280;15453;53.692;10.168;2023-07-20T03:17:57;100875.72;;;19.15
27986;BMP280;15453;53.692;10.168;2023-07-20T03:20:23;100875.72;;;19.15
27986;BMP280;15453;53.692;10.168;2023-07-20T03:22:49;100880.41;;;19.15
27986;BMP280;15453;53.692;10.168;2023-07-20T03:25:14;100880.41;;;19.15
27986;BMP280;15453;53.692;10.168;2023-07-20T03:27:39;100868.81;;;19.13
27986;BMP280;15453;53.692;10.168;2023-07-20T03:30:05;100864.06;;;19.13
27986;BMP280;15453;53.692;10.168;2023-07-20T03:32:32;100864.06;;;19.13
27986;BMP280;15453;53.692;10.168;2023-07-20T03:34:57;100875.16;;;19.13
27986;BMP280;15453;53.692;10.168;2023-07-20T03:37:22;100885.13;;;19.14
27986;BMP280;15453;53.692;10.168;2023-07-20T03:39:48;100885.13;;;19.14
27986;BMP280;15453;53.692;10.168;2023-07-20T03:42:13;100884.34;;;19.14
27986;BMP280;15453;53.692;10.168;2023-07-20T03:44:39;100884.34;;;19.14
27986;BMP280;15453;53.692;10.168;2023-07-20T03:47:04;100877.94;;;19.13
27986;BMP280;15453;53.692;10.168;2023-07-20T03:49:30;100877.94;;;19.13
27986;BMP280;15453;53.692;10.168;2023-07-20T03:51:55;100872.69;;;19.12
27986;BMP280;15453;53.692;10.168;2023-07-20T03:54:20;100867.44;;;19.10
27986;BMP280;15453;53.692;10.168;2023-07-20T03:56:45;100863.84;;;19.10
27986;BMP280;15453;53.692;10.168;2023-07-20T03:59:11;100876.91;;;19.09
27986;BMP280;15453;53.692;10.168;2023-07-20T04:01:36;100876.91;;;19.09
27986;BMP280;15453;53.692;10.168;2023-07-20T04:04:06;100882.16;;;19.11
27986;BMP280;15453;53.692;10.168;2023-07-20T04:06:32;100882.16;;;19.11
27986;BMP280;15453;53.692;10.168;2023-07-20T04:08:58;100884.09;;;19.10
27986;BMP280;15453;53.692;10.168;2023-07-20T04:11:23;100890.47;;;19.11
27986;BMP280;15453;53.692;10.168;2023-07-20T04:13:48;100895.19;;;19.10
27986;BMP280;15453;53.692;10.168;2023-07-20T04:16:14;100892.41;;;19.10
27986;BMP280;15453;53.692;10.168;2023-07-20T04:18:39;100891.63;;;19.10
27986;BMP280;15453;53.692;10.168;2023-07-20T04:21:04;100891.63;;;19.10
27986;BMP280;15453;53.692;10.168;2023-07-20T04:23:30;100899.94;;;19.10
27986;BMP280;15453;53.692;10.168;2023-07-20T04:25:55;100899.94;;;19.10
27986;BMP280;15453;53.692;10.168;2023-07-20T04:28:20;100900.53;;;19.07
27986;BMP280;15453;53.692;10.168;2023-07-20T04:30:48;100900.25;;;19.08
27986;BMP280;15453;53.692;10.168;2023-07-20T04:33:14;100907.13;;;19.11
27986;BMP280;15453;53.692;10.168;2023-07-20T04:38:14;100900.84;;;19.05
27986;BMP280;15453;53.692;10.168;2023-07-20T04:40:46;100907.22;;;19.06
27986;BMP280;15453;53.692;10.168;2023-07-20T04:43:16;100912.25;;;19.04
27986;BMP280;15453;53.692;10.168;2023-07-20T04:45:41;100908.66;;;19.03
27986;BMP280;15453;53.692;10.168;2023-07-20T04:48:09;100903.91;;;19.04
27986;BMP280;15453;53.692;10.168;2023-07-20T04:50:36;100901.66;;;19.06
27986;BMP280;15453;53.692;10.168;2023-07-20T04:53:02;100906.94;;;19.07
27986;BMP280;15453;53.692;10.168;2023-07-20T04:55:27;100906.94;;;19.07
27986;BMP280;15453;53.692;10.168;2023-07-20T04:57:53;100899.41;;;19.08
27986;BMP280;15453;53.692;10.168;2023-07-20T05:00:18;100893.34;;;19.06
27986;BMP280;15453;53.692;10.168;2023-07-20T05:02:44;100897.47;;;19.08
27986;BMP280;15453;53.692;10.168;2023-07-20T05:05:09;100896.34;;;19.09
27986;BMP280;15453;53.692;10.168;2023-07-20T05:07:34;100902.13;;;19.13
27986;BMP280;15453;53.692;10.168;2023-07-20T05:10:00;100902.13;;;19.13
27986;BMP280;15453;53.692;10.168;2023-07-20T05:12:25;100903.22;;;19.12
27986;BMP280;15453;53.692;10.168;2023-07-20T05:14:51;100903.22;;;19.12
27986;BMP280;15453;53.692;10.168;2023-07-20T05:17:16;100897.16;;;19.10
27986;BMP280;15453;53.692;10.168;2023-07-20T05:19:41;100893.56;;;19.09
27986;BMP280;15453;53.692;10.168;2023-07-20T05:22:06;100896.03;;;19.11
27986;BMP280;15453;53.692;10.168;2023-07-20T05:24:32;100896.56;;;19.13
27986;BMP280;15453;53.692;10.168;2023-07-20T05:26:58;100897.09;;;19.15
27986;BMP280;15453;53.692;10.168;2023-07-20T05:29:23;100898.72;;;19.16
27986;BMP280;15453;53.692;10.168;2023-07-20T05:31:49;100898.44;;;19.17
27986;BMP280;15453;53.692;10.168;2023-07-20T05:34:14;100894.50;;;19.18
27986;BMP280;15453;53.692;10.168;2023-07-20T05:36:39;100895.88;;;19.21
27986;BMP280;15453;53.692;10.168;2023-07-20T05:39:05;100903.88;;;19.27
27986;BMP280;15453;53.692;10.168;2023-07-20T05:41:31;100903.88;;;19.27
27986;BMP280;15453;53.692;10.168;2023-07-20T05:43:56;100898.31;;;19.27
27986;BMP280;15453;53.692;10.168;2023-07-20T05:46:22;100907.16;;;19.29
27986;BMP280;15453;53.692;10.168;2023-07-20T05:48:47;100888.25;;;19.31
27986;BMP280;15453;53.692;10.168;2023-07-20T05:51:12;100902.63;;;19.33
27986;BMP280;15453;53.692;10.168;2023-07-20T05:53:37;100890.94;;;19.36
27986;BMP280;15453;53.692;10.168;2023-07-20T05:56:03;100892.28;;;19.39
27986;BMP280;15453;53.692;10.168;2023-07-20T05:58:29;100884.06;;;19.47
27986;BMP280;15453;53.692;10.168;2023-07-20T06:00:54;100884.06;;;19.47
27986;BMP280;15453;53.692;10.168;2023-07-20T06:03:19;100885.41;;;19.50
27986;BMP280;15453;53.692;10.168;2023-07-20T06:05:46;100882.84;;;19.53
27986;BMP280;15453;53.692;10.168;2023-07-20T06:08:11;100891.94;;;19.59
27986;BMP280;15453;53.692;10.168;2023-07-20T06:10:37;100892.97;;;19.63
27986;BMP280;15453;53.692;10.168;2023-07-20T06:13:02;100888.75;;;19.65
27986;BMP280;15453;53.692;10.168;2023-07-20T06:15:33;100888.94;;;19.69
27986;BMP280;15453;53.692;10.168;2023-07-20T06:18:03;100890.28;;;19.71
27986;BMP280;15453;53.692;10.168;2023-07-20T06:20:29;100893.59;;;19.73
27986;BMP280;15453;53.692;10.168;2023-07-20T06:22:54;100892.16;;;19.76
27986;BMP280;15453;53.692;10.168;2023-07-20T06:25:19;100894.31;;;19.79
27986;BMP280;15453;53.692;10.168;2023-07-20T06:27:46;100898.13;;;19.83
27986;BMP280;15453;53.692;10.168;2023-07-20T06:30:11;100896.38;;;19.87
27986;BMP280;15453;53.692;10.168;2023-07-20T06:32:38;100896.63;;;19.90
27986;BMP280;15453;53.692;10.168;2023-07-20T06:35:03;100897.94;;;19.93
27986;BMP280;15453;53.692;10.168;2023-07-20T06:37:29;100899.28;;;19.95
27986;BMP280;15453;53.692;10.168;2023-07-20T06:39:54;100905.88;;;19.99
27986;BMP280;15453;53.692;10.168;2023-07-20T06:42:19;100901.06;;;20.05
27986;BMP280;15453;53.692;10.168;2023-07-20T06:44:44;100901.06;;;20.05
27986;BMP280;15453;53.692;10.168;2023-07-20T06:47:10;100896.59;;;20.04
27986;BMP280;15453;53.692;10.168;2023-07-20T06:49:35;100899.38;;;20.04
27986;BMP280;15453;53.692;10.168;2023-07-20T06:52:01;100899.38;;;20.04
27986;BMP280;15453;53.692;10.168;2023-07-20T06:54:26;100901.56;;;20.07
27986;BMP280;15453;53.692;10.168;2023-07-20T06:56:51;100902.41;;;20.07
27986;BMP280;15453;53.692;10.168;2023-07-20T06:59:17;100900.16;;;20.09
27986;BMP280;15453;53.692;10.168;2023-07-20T07:01:42;100903.66;;;20.15
27986;BMP280;15453;53.692;10.168;2023-07-20T07:04:07;100896.66;;;20.17
27986;BMP280;15453;53.692;10.168;2023-07-20T07:06:33;100901.00;;;20.23
27986;BMP280;15453;53.692;10.168;2023-07-20T07:08:58;100898.41;;;20.27
27986;BMP280;15453;53.692;10.168;2023-07-20T07:11:23;100899.13;;;20.32
27986;BMP280;15453;53.692;10.168;2023-07-20T07:13:49;100895.41;;;20.37
27986;BMP280;15453;53.692;10.168;2023-07-20T07:16:16;100895.94;;;20.39
27986;BMP280;15453;53.692;10.168;2023-07-20T07:18:44;100895.63;;;20.40
27986;BMP280;15453;53.692;10.168;2023-07-20T07:21:09;100887.78;;;20.42
27986;BMP280;15453;53.692;10.168;2023-07-20T07:23:35;100891.09;;;20.44
27986;BMP280;15453;53.692;10.168;2023-07-20T07:26:00;100891.09;;;20.44
27986;BMP280;15453;53.692;10.168;2023-07-20T07:28:25;100899.44;;;20.44
27986;BMP280;15453;53.692;10.168;2023-07-20T07:30:51;100899.44;;;20.44
27986;BMP280;15453;53.692;10.168;2023-07-20T07:33:16;100898.78;;;20.47
27986;BMP280;15453;53.692;10.168;2023-07-20T07:35:41;100896.41;;;20.54
27986;BMP280;15453;53.692;10.168;2023-07-20T07:38:06;100896.41;;;20.54
27986;BMP280;15453;53.692;10.168;2023-07-20T07:40:32;100887.75;;;20.56
27986;BMP280;15453;53.692;10.168;2023-07-20T07:42:57;100891.88;;;20.58
27986;BMP280;15453;53.692;10.168;2023-07-20T07:45:22;100898.47;;;20.62
27986;BMP280;15453;53.692;10.168;2023-07-20T07:47:48;100906.50;;;20.64
27986;BMP280;15453;53.692;10.168;2023-07-20T07:50:13;100914.25;;;20.67
27986;BMP280;15453;53.692;10.168;2023-07-20T07:52:38;100903.91;;;20.67
27986;BMP280;15453;53.692;10.168;2023-07-20T07:55:04;100922.59;;;20.67
27986;BMP280;15453;53.692;10.168;2023-07-20T07:57:30;100922.59;;;20.67
27986;BMP280;15453;53.692;10.168;2023-07-20T07:59:55;100907.97;;;20.61
27986;BMP280;15453;53.692;10.168;2023-07-20T08:02:20;100916.63;;;20.60
27986;BMP280;15453;53.692;10.168;2023-07-20T08:04:46;100923.09;;;20.55
27986;BMP280;15453;53.692;10.168;2023-07-20T08:07:12;100918.19;;;20.52
27986;BMP280;15453;53.692;10.168;2023-07-20T08:09:37;100915.19;;;20.49
27986;BMP280;15453;53.692;10.168;2023-07-20T08:12:03;100916.31;;;20.48
27986;BMP280;15453;53.692;10.168;2023-07-20T08:14:28;100923.81;;;20.47
27986;BMP280;15453;53.692;10.168;2023-07-20T08:16:54;100918.78;;;20.49
27986;BMP280;15453;53.692;10.168;2023-07-20T08:19:19;100919.28;;;20.51
27986;BMP280;15453;53.692;10.168;2023-07-20T08:21:45;100919.53;;;20.55
27986;BMP280;15453;53.692;10.168;2023-07-20T08:24:10;100914.44;;;20.57
27986;BMP280;15453;53.692;10.168;2023-07-20T08:26:35;100923.03;;;20.60
27986;BMP280;15453;53.692;10.168;2023-07-20T08:29:00;100924.31;;;20.76
27986;BMP280;15453;53.692;10.168;2023-07-20T08:31:25;100924.31;;;20.76
27986;BMP280;15453;53.692;10.168;2023-07-20T08:33:53;100916.66;;;20.82
27986;BMP280;15453;53.692;10.168;2023-07-20T08:36:18;100915.75;;;20.86
27986;BMP280;15453;53.692;10.168;2023-07-20T08:38:43;100919.56;;;20.90
27986;BMP280;15453;53.692;10.168;2023-07-20T08:41:09;100919.78;;;20.94
27986;BMP280;15453;53.692;10.168;2023-07-20T08:43:37;100928.97;;;20.94
27986;BMP280;15453;53.692;10.168;2023-07-20T08:46:03;100926.66;;;20.96
27986;BMP280;15453;53.692;10.168;2023-07-20T08:48:30;100934.09;;;21.01
27986;BMP280;15453;53.692;10.168;2023-07-20T08:50:56;100916.44;;;21.05
27986;BMP280;15453;53.692;10.168;2023-07-20T08:53:23;100916.81;;;21.12
27986;BMP280;15453;53.692;10.168;2023-07-20T08:55:50;100916.06;;;21.20
27986;BMP280;15453;53.692;10.168;2023-07-20T08:58:16;100918.81;;;21.34
27986;BMP280;15453;53.692;10.168;2023-07-20T09:00:43;100918.81;;;21.34
27986;BMP280;15453;53.692;10.168;2023-07-20T09:03:08;100910.63;;;21.37
27986;BMP280;15453;53.692;10.168;2023-07-20T09:05:35;100914.13;;;21.43
27986;BMP280;15453;53.692;10.168;2023-07-20T09:08:00;100916.16;;;21.51
27986;BMP280;15453;53.692;10.168;2023-07-20T09:10:26;100918.19;;;21.59
27986;BMP280;15453;53.692;10.168;2023-07-20T09:12:51;100907.91;;;21.68
27986;BMP280;15453;53.692;10.168;2023-07-20T09:15:16;100920.56;;;21.74
27986;BMP280;15453;53.692;10.168;2023-07-20T09:17:46;100920.56;;;21.74
27986;BMP280;15453;53.692;10.168;2023-07-20T09:20:14;100908.94;;;21.72
27986;BMP280;15453;53.692;10.168;2023-07-20T09:25:14;100909.81;;;21.81
27986;BMP280;15453;53.692;10.168;2023-07-20T09:27:47;100913.59;;;21.85
27986;BMP280;15453;53.692;10.168;2023-07-20T09:30:14;100940.53;;;21.89
27986;BMP280;15453;53.692;10.168;2023-07-20T09:32:41;100953.13;;;21.87
27986;BMP280;15453;53.692;10.168;2023-07-20T09:35:13;100953.13;;;21.87
27986;BMP280;15453;53.692;10.168;2023-07-20T09:37:38;100948.47;;;21.74
27986;BMP280;15453;53.692;10.168;2023-07-20T09:40:06;100944.44;;;21.66
27986;BMP280;15453;53.692;10.168;2023-07-20T09:42:31;100950.16;;;21.61
27986;BMP280;15453;53.692;10.168;2023-07-20T09:44:57;100946.97;;;21.54
27986;BMP280;15453;53.692;10.168;2023-07-20T09:47:23;100948.75;;;21.50
27986;BMP280;15453;53.692;10.168;2023-07-20T09:49:48;100944.66;;;21.48
27986;BMP280;15453;53.692;10.168;2023-07-20T09:52:15;100938.06;;;21.44
27986;BMP280;15453;53.692;10.168;2023-07-20T09:54:41;100944.25;;;21.41
27986;BMP280;15453;53.692;10.168;2023-07-20T09:57:07;100939.19;;;21.43
27986;BMP280;15453;53.692;10.168;2023-07-20T09:59:34;100939.38;;;21.46
27986;BMP280;15453;53.692;10.168;2023-07-20T10:02:01;100930.72;;;21.48
27986;BMP280;15453;53.692;10.168;2023-07-20T10:04:28;100937.00;;;21.53
27986;BMP280;15453;53.692;10.168;2023-07-20T10:06:55;100928.19;;;21.60
27986;BMP280;15453;53.692;10.168;2023-07-20T10:09:22;100929.38;;;21.67
27986;BMP280;15453;53.692;10.168;2023-07-20T10:11:50;100925.53;;;21.77
27986;BMP280;15453;53.692;10.168;2023-07-20T10:14:19;100935.81;;;21.98
27986;BMP280;15453;53.692;10.168;2023-07-20T10:16:55;100935.81;;;21.98
27986;BMP280;15453;53.692;10.168;2023-07-20T10:19:37;100918.13;;;22.03
27986;BMP280;15453;53.692;10.168;2023-07-20T10:22:10;100931.97;;;22.17
27986;BMP280;15453;53.692;10.168;2023-07-20T10:24:38;100963.66;;;22.21
27986;BMP280;15453;53.692;10.168;2023-07-20T10:27:04;100971.88;;;22.26
27986;BMP280;15453;53.692;10.168;2023-07-20T10:29:30;100971.19;;;22.20
27986;BMP280;15453;53.692;10.168;2023-07-20T10:31:56;100965.06;;;22.09
27986;BMP280;15453;53.692;10.168;2023-07-20T10:34:22;100969.94;;;21.95
27986;BMP280;15453;53.692;10.168;2023-07-20T10:36:48;100962.78;;;21.81
27986;BMP280;15453;53.692;10.168;2023-07-20T10:39:31;100957.91;;;21.64
27986;BMP280;15453;53.692;10.168;2023-07-20T10:42:01;100960.75;;;21.51
27986;BMP280;15453;53.692;10.168;2023-07-20T10:44:27;100951.81;;;21.40
27986;BMP280;15453;53.692;10.168;2023-07-20T10:46:59;100951.81;;;21.40
27986;BMP280;15453;53.692;10.168;2023-07-20T10:49:24;100944.69;;;21.34
27986;BMP280;15453;53.692;10.168;2023-07-20T10:51:57;100943.75;;;21.39
27986;BMP280;15453;53.692;10.168;2023-07-20T10:56:51;100949.91;;;21.49
27986;BMP280;15453;53.692;10.168;2023-07-20T10:59:41;100940.56;;;21.54
27986;BMP280;15453;53.692;10.168;2023-07-20T11:02:08;100950.97;;;21.62
27986;BMP280;15453;53.692;10.168;2023-07-20T11:04:41;100945.66;;;21.74
27986;BMP280;15453;53.692;10.168;2023-07-20T11:07:07;100940.66;;;21.84
27986;BMP280;15453;53.692;10.168;2023-07-20T11:09:37;100923.16;;;21.92
27986;BMP280;15453;53.692;10.168;2023-07-20T11:14:40;100929.50;;;22.15
27986;BMP280;15453;53.692;10.168;2023-07-20T11:17:14;100927.44;;;22.29
27986;BMP280;15453;53.692;10.168;2023-07-20T11:19:40;100931.97;;;22.47
27986;BMP280;15453;53.692;10.168;2023-07-20T11:22:07;100932.31;;;22.63
27986;BMP280;15453;53.692;10.168;2023-07-20T11:24:33;100937.16;;;22.79
27986;BMP280;15453;53.692;10.168;2023-07-20T11:26:58;100933.03;;;22.94
27986;BMP280;15453;53.692;10.168;2023-07-20T11:29:24;100927.13;;;23.12
27986;BMP280;15453;53.692;10.168;2023-07-20T11:31:50;100936.56;;;23.25
27986;BMP280;15453;53.692;10.168;2023-07-20T11:34:17;100941.16;;;23.38
27986;BMP280;15453;53.692;10.168;2023-07-20T11:36:52;100943.13;;;23.46
27986;BMP280;15453;53.692;10.168;2023-07-20T11:39:19;100980.59;;;23.53
27986;BMP280;15453;53.692;10.168;2023-07-20T11:41:47;100952.13;;;23.60
27986;BMP280;15453;53.692;10.168;2023-07-20T11:44:13;100957.91;;;23.55
27986;BMP280;15453;53.692;10.168;2023-07-20T11:46:41;100970.75;;;23.39
27986;BMP280;15453;53.692;10.168;2023-07-20T11:49:07;100970.75;;;23.39
27986;BMP280;15453;53.692;10.168;2023-07-20T11:51:32;100971.25;;;23.24
27986;BMP280;15453;53.692;10.168;2023-07-20T11:53:59;100982.84;;;23.09
27986;BMP280;15453;53.692;10.168;2023-07-20T11:56:25;100980.88;;;22.92
27986;BMP280;15453;53.692;10.168;2023-07-20T11:58:50;100989.16;;;22.67
27986;BMP280;15453;53.692;10.168;2023-07-20T12:01:19;100989.16;;;22.67
27986;BMP280;15453;53.692;10.168;2023-07-20T12:03:45;100980.22;;;22.48
27986;BMP280;15453;53.692;10.168;2023-07-20T12:06:11;100989.47;;;22.35
27986;BMP280;15453;53.692;10.168;2023-07-20T12:08:43;100980.56;;;22.24
27986;BMP280;15453;53.692;10.168;2023-07-20T12:11:08;100985.91;;;22.12
27986;BMP280;15453;53.692;10.168;2023-07-20T12:13:38;100979.16;;;22.04
27986;BMP280;15453;53.692;10.168;2023-07-20T12:16:08;100982.72;;;21.96
27986;BMP280;15453;53.692;10.168;2023-07-20T12:18:35;100986.81;;;21.90
27986;BMP280;15453;53.692;10.168;2023-07-20T12:21:00;100983.50;;;21.88
27986;BMP280;15453;53.692;10.168;2023-07-20T12:23:26;100983.50;;;21.88
27986;BMP280;15453;53.692;10.168;2023-07-20T12:25:51;100978.06;;;21.83
27986;BMP280;15453;53.692;10.168;2023-07-20T12:28:18;100975.78;;;21.85
27986;BMP280;15453;53.692;10.168;2023-07-20T12:30:45;100981.41;;;21.94
27986;BMP280;15453;53.692;10.168;2023-07-20T12:33:11;100981.41;;;21.94
27986;BMP280;15453;53.692;10.168;2023-07-20T12:35:39;100981.91;;;21.96
27986;BMP280;15453;53.692;10.168;2023-07-20T12:38:04;100975.09;;;22.11
27986;BMP280;15453;53.692;10.168;2023-07-20T12:40:30;100975.09;;;22.11
27986;BMP280;15453;53.692;10.168;2023-07-20T12:42:55;100961.50;;;22.17
27986;BMP280;15453;53.692;10.168;2023-07-20T12:45:20;100967.47;;;22.25
27986;BMP280;15453;53.692;10.168;2023-07-20T12:47:46;100960.88;;;22.51
27986;BMP280;15453;53.692;10.168;2023-07-20T12:50:11;100960.88;;;22.51
27986;BMP280;15453;53.692;10.168;2023-07-20T12:52:39;100958.59;;;22.62
27986;BMP280;15453;53.692;10.168;2023-07-20T12:55:05;100965.72;;;22.76
27986;BMP280;15453;53.692;10.168;2023-07-20T12:57:33;100966.22;;;22.87
27986;BMP280;15453;53.692;10.168;2023-07-20T12:59:59;100976.28;;;22.96
27986;BMP280;15453;53.692;10.168;2023-07-20T13:02:25;100957.22;;;23.07
27986;BMP280;15453;53.692;10.168;2023-07-20T13:04:50;100965.94;;;23.14
27986;BMP280;15453;53.692;10.168;2023-07-20T13:07:15;100965.94;;;23.14
27986;BMP280;15453;53.692;10.168;2023-07-20T13:09:40;100954.28;;;23.12
27986;BMP280;15453;53.692;10.168;2023-07-20T13:12:06;100942.09;;;23.16
27986;BMP280;15453;53.692;10.168;2023-07-20T13:14:31;100952.81;;;23.23
27986;BMP280;15453;53.692;10.168;2023-07-20T13:16:57;100959.41;;;23.44
27986;BMP280;15453;53.692;10.168;2023-07-20T13:19:22;100959.41;;;23.44
27986;BMP280;15453;53.692;10.168;2023-07-20T13:21:47;100952.16;;;23.51
27986;BMP280;15453;53.692;10.168;2023-07-20T13:24:13;100954.78;;;23.65
27986;BMP280;15453;53.692;10.168;2023-07-20T13:26:38;100949.69;;;23.75
27986;BMP280;15453;53.692;10.168;2023-07-20T13:29:03;100958.34;;;23.82
27986;BMP280;15453;53.692;10.168;2023-07-20T13:31:29;100951.97;;;23.82
27986;BMP280;15453;53.692;10.168;2023-07-20T13:33:54;100959.53;;;23.81
27986;BMP280;15453;53.692;10.168;2023-07-20T13:36:22;100975.84;;;23.79
27986;BMP280;15453;53.692;10.168;2023-07-20T13:38:47;100964.47;;;23.76
27986;BMP280;15453;53.692;10.168;2023-07-20T13:41:14;100965.81;;;23.70
27986;BMP280;15453;53.692;10.168;2023-07-20T13:43:40;100965.16;;;23.64
27986;BMP280;15453;53.692;10.168;2023-07-20T13:46:05;100969.25;;;23.58
27986;BMP280;15453;53.692;10.168;2023-07-20T13:48:30;100968.28;;;23.54
27986;BMP280;15453;53.692;10.168;2023-07-20T13:50:55;100976.00;;;23.57
27986;BMP280;15453;53.692;10.168;2023-07-20T13:53:20;100977.31;;;23.60